sensor_id;sensor_type;location;lat;lon;timestamp;P1;durP1;ratioP1;P2;durP2;ratioP2
78308;SDS011;67566;42.022;21.356;2023-04-10T00:01:55;15.07;;;10.85;;
78308;SDS011;67566;42.022;21.356;2023-04-10T00:04:20;47.15;;;26.45;;
78308;SDS011;67566;42.022;21.356;2023-04-10T00:06:46;17.17;;;11.70;;
78308;SDS011;67566;42.022;21.356;2023-04-10T00:09:13;12.50;;;9.73;;
78308;SDS011;67566;42.022;21.356;2023-04-10T00:11:38;14.55;;;11.38;;
78308;SDS011;67566;42.022;21.356;2023-04-10T00:14:04;11.20;;;8.68;;
78308;SDS011;67566;42.022;21.356;2023-04-10T00:16:29;11.90;;;8.63;;
78308;SDS011;67566;42.022;21.356;2023-04-10T00:18:55;11.60;;;9.00;;
78308;SDS011;67566;42.022;21.356;2023-04-10T00:21:20;11.00;;;8.27;;
78308;SDS011;67566;42.022;21.356;2023-04-10T00:23:46;12.75;;;9.57;;
78308;SDS011;67566;42.022;21.356;2023-04-10T00:26:11;11.95;;;10.02;;
78308;SDS011;67566;42.022;21.356;2023-04-10T00:28:36;12.68;;;9.23;;
78308;SDS011;67566;42.022;21.356;2023-04-10T00:31:03;14.20;;;10.55;;
78308;SDS011;67566;42.022;21.356;2023-04-10T00:33:29;14.23;;;10.30;;
78308;SDS011;67566;42.022;21.356;2023-04-10T00:35:54;13.20;;;10.07;;
78308;SDS011;67566;42.022;21.356;2023-04-10T00:38:20;14.70;;;10.85;;
78308;SDS011;67566;42.022;21.356;2023-04-10T00:40:46;14.68;;;10.90;;
78308;SDS011;67566;42.022;21.356;2023-04-10T00:43:12;14.43;;;10.68;;
78308;SDS011;67566;42.022;21.356;2023-04-10T00:45:37;14.63;;;11.40;;
78308;SDS011;67566;42.022;21.356;2023-04-10T00:48:03;18.30;;;13.27;;
78308;SDS011;67566;42.022;21.356;2023-04-10T00:50:29;15.48;;;11.43;;
78308;SDS011;67566;42.022;21.356;2023-04-10T00:52:55;12.45;;;9.38;;
78308;SDS011;67566;42.022;21.356;2023-04-10T00:55:21;14.15;;;9.80;;
78308;SDS011;67566;42.022;21.356;2023-04-10T00:57:47;12.82;;;9.90;;
78308;SDS011;67566;42.022;21.356;2023-04-10T01:00:13;13.00;;;9.73;;
78308;SDS011;67566;42.022;21.356;2023-04-10T01:02:40;12.27;;;9.68;;
78308;SDS011;67566;42.022;21.356;2023-04-10T01:05:05;11.80;;;9.20;;
78308;SDS011;67566;42.022;21.356;2023-04-10T01:10:37;13.75;;;10.20;;
78308;SDS011;67566;42.022;21.356;2023-04-10T01:15:57;13.52;;;10.23;;
78308;SDS011;67566;42.022;21.356;2023-04-10T01:21:01;12.65;;;9.55;;
78308;SDS011;67566;42.022;21.356;2023-04-10T01:26:07;10.93;;;9.52;;
78308;SDS011;67566;42.022;21.356;2023-04-10T01:31:49;12.70;;;9.35;;
78308;SDS011;67566;42.022;21.356;2023-04-10T01:34:27;12.35;;;9.70;;
78308;SDS011;67566;42.022;21.356;2023-04-10T01:36:59;14.65;;;10.60;;
78308;SDS011;67566;42.022;21.356;2023-04-10T01:39:26;15.70;;;11.43;;
78308;SDS011;67566;42.022;21.356;2023-04-10T01:41:54;12.95;;;10.27;;
78308;SDS011;67566;42.022;21.356;2023-04-10T01:44:23;12.95;;;10.45;;
78308;SDS011;67566;42.022;21.356;2023-04-10T01:46:51;14.73;;;11.93;;
78308;SDS011;67566;42.022;21.356;2023-04-10T01:49:19;14.75;;;11.15;;
78308;SDS011;67566;42.022;21.356;2023-04-10T01:51:46;16.85;;;11.95;;
78308;SDS011;67566;42.022;21.356;2023-04-10T01:54:12;15.18;;;11.27;;
78308;SDS011;67566;42.022;21.356;2023-04-10T01:56:38;14.43;;;10.43;;
78308;SDS011;67566;42.022;21.356;2023-04-10T01:59:05;14.55;;;10.50;;
78308;SDS011;67566;42.022;21.356;2023-04-10T02:01:30;12.10;;;9.55;;
78308;SDS011;67566;42.022;21.356;2023-04-10T02:03:56;13.57;;;10.07;;
78308;SDS011;67566;42.022;21.356;2023-04-10T02:09:19;14.30;;;10.90;;
78308;SDS011;67566;42.022;21.356;2023-04-10T02:12:05;15.95;;;10.45;;
78308;SDS011;67566;42.022;21.356;2023-04-10T02:14:35;15.45;;;11.93;;
78308;SDS011;67566;42.022;21.356;2023-04-10T02:17:02;14.00;;;11.32;;
78308;SDS011;67566;42.022;21.356;2023-04-10T02:19:30;15.68;;;11.43;;
78308;SDS011;67566;42.022;21.356;2023-04-10T02:21:56;18.73;;;12.88;;
78308;SDS011;67566;42.022;21.356;2023-04-10T02:24:22;16.58;;;13.23;;
78308;SDS011;67566;42.022;21.356;2023-04-10T02:26:49;16.63;;;13.23;;
78308;SDS011;67566;42.022;21.356;2023-04-10T02:29:16;15.68;;;12.52;;
78308;SDS011;67566;42.022;21.356;2023-04-10T02:31:42;16.00;;;12.88;;
78308;SDS011;67566;42.022;21.356;2023-04-10T02:34:08;14.85;;;11.30;;
78308;SDS011;67566;42.022;21.356;2023-04-10T02:36:35;14.80;;;11.20;;
78308;SDS011;67566;42.022;21.356;2023-04-10T02:39:02;12.48;;;10.30;;
78308;SDS011;67566;42.022;21.356;2023-04-10T02:41:28;15.82;;;12.07;;
78308;SDS011;67566;42.022;21.356;2023-04-10T02:43:53;15.18;;;11.48;;
78308;SDS011;67566;42.022;21.356;2023-04-10T02:46:19;14.93;;;10.98;;
78308;SDS011;67566;42.022;21.356;2023-04-10T02:48:44;14.80;;;11.35;;
78308;SDS011;67566;42.022;21.356;2023-04-10T02:51:10;16.42;;;11.52;;
78308;SDS011;67566;42.022;21.356;2023-04-10T02:53:35;13.65;;;10.05;;
78308;SDS011;67566;42.022;21.356;2023-04-10T02:56:01;13.80;;;10.82;;
78308;SDS011;67566;42.022;21.356;2023-04-10T02:58:27;14.70;;;10.55;;
78308;SDS011;67566;42.022;21.356;2023-04-10T03:00:54;12.48;;;9.93;;
78308;SDS011;67566;42.022;21.356;2023-04-10T03:03:20;11.38;;;8.82;;
78308;SDS011;67566;42.022;21.356;2023-04-10T03:05:46;11.98;;;9.82;;
78308;SDS011;67566;42.022;21.356;2023-04-10T03:08:13;13.55;;;10.68;;
78308;SDS011;67566;42.022;21.356;2023-04-10T03:10:42;13.90;;;10.90;;
78308;SDS011;67566;42.022;21.356;2023-04-10T03:13:09;12.50;;;10.43;;
78308;SDS011;67566;42.022;21.356;2023-04-10T03:15:35;13.73;;;11.10;;
78308;SDS011;67566;42.022;21.356;2023-04-10T03:18:00;14.98;;;11.35;;
78308;SDS011;67566;42.022;21.356;2023-04-10T03:20:26;14.18;;;10.23;;
78308;SDS011;67566;42.022;21.356;2023-04-10T03:22:51;12.15;;;9.77;;
78308;SDS011;67566;42.022;21.356;2023-04-10T03:25:17;14.52;;;10.50;;
78308;SDS011;67566;42.022;21.356;2023-04-10T03:27:42;14.40;;;10.65;;
78308;SDS011;67566;42.022;21.356;2023-04-10T03:30:08;12.55;;;9.80;;
78308;SDS011;67566;42.022;21.356;2023-04-10T03:32:33;14.25;;;11.20;;
78308;SDS011;67566;42.022;21.356;2023-04-10T03:34:59;13.20;;;10.27;;
78308;SDS011;67566;42.022;21.356;2023-04-10T03:37:25;15.10;;;11.45;;
78308;SDS011;67566;42.022;21.356;2023-04-10T03:39:51;17.30;;;12.23;;
78308;SDS011;67566;42.022;21.356;2023-04-10T03:42:17;15.80;;;11.73;;
78308;SDS011;67566;42.022;21.356;2023-04-10T03:44:43;14.93;;;11.55;;
78308;SDS011;67566;42.022;21.356;2023-04-10T03:47:08;14.05;;;11.48;;
78308;SDS011;67566;42.022;21.356;2023-04-10T03:49:34;14.00;;;10.57;;
78308;SDS011;67566;42.022;21.356;2023-04-10T03:51:59;13.43;;;10.88;;
78308;SDS011;67566;42.022;21.356;2023-04-10T03:54:25;13.60;;;11.18;;
78308;SDS011;67566;42.022;21.356;2023-04-10T03:56:50;13.93;;;10.80;;
78308;SDS011;67566;42.022;21.356;2023-04-10T03:59:16;14.95;;;11.23;;
78308;SDS011;67566;42.022;21.356;2023-04-10T04:01:41;15.18;;;12.13;;
78308;SDS011;67566;42.022;21.356;2023-04-10T04:04:07;19.63;;;12.88;;
78308;SDS011;67566;42.022;21.356;2023-04-10T04:06:32;17.67;;;12.82;;
78308;SDS011;67566;42.022;21.356;2023-04-10T04:08:58;14.88;;;11.20;;
78308;SDS011;67566;42.022;21.356;2023-04-10T04:11:23;14.88;;;11.23;;
78308;SDS011;67566;42.022;21.356;2023-04-10T04:13:48;12.75;;;10.75;;
78308;SDS011;67566;42.022;21.356;2023-04-10T04:16:14;15.90;;;12.18;;
78308;SDS011;67566;42.022;21.356;2023-04-10T04:18:40;16.67;;;13.95;;
78308;SDS011;67566;42.022;21.356;2023-04-10T04:21:05;20.92;;;13.15;;
78308;SDS011;67566;42.022;21.356;2023-04-10T04:23:32;15.65;;;12.55;;
78308;SDS011;67566;42.022;21.356;2023-04-10T04:25:58;18.67;;;14.18;;
78308;SDS011;67566;42.022;21.356;2023-04-10T04:28:23;16.50;;;11.85;;
78308;SDS011;67566;42.022;21.356;2023-04-10T04:30:49;16.02;;;11.77;;
78308;SDS011;67566;42.022;21.356;2023-04-10T04:33:14;16.20;;;11.40;;
78308;SDS011;67566;42.022;21.356;2023-04-10T04:35:40;16.55;;;11.82;;
78308;SDS011;67566;42.022;21.356;2023-04-10T04:38:06;14.05;;;10.32;;
78308;SDS011;67566;42.022;21.356;2023-04-10T04:40:31;16.67;;;12.23;;
78308;SDS011;67566;42.022;21.356;2023-04-10T04:42:56;14.48;;;11.55;;
78308;SDS011;67566;42.022;21.356;2023-04-10T04:45:22;13.98;;;10.63;;
78308;SDS011;67566;42.022;21.356;2023-04-10T04:47:48;18.65;;;15.30;;
78308;SDS011;67566;42.022;21.356;2023-04-10T04:50:14;24.52;;;21.15;;
78308;SDS011;67566;42.022;21.356;2023-04-10T04:52:39;17.25;;;14.05;;
78308;SDS011;67566;42.022;21.356;2023-04-10T04:55:05;22.77;;;20.33;;
78308;SDS011;67566;42.022;21.356;2023-04-10T04:57:31;36.05;;;29.20;;
78308;SDS011;67566;42.022;21.356;2023-04-10T04:59:56;26.35;;;23.02;;
78308;SDS011;67566;42.022;21.356;2023-04-10T05:02:22;21.83;;;17.40;;
78308;SDS011;67566;42.022;21.356;2023-04-10T05:04:47;15.38;;;12.30;;
78308;SDS011;67566;42.022;21.356;2023-04-10T05:07:13;14.38;;;10.43;;
78308;SDS011;67566;42.022;21.356;2023-04-10T05:09:38;15.27;;;11.45;;
78308;SDS011;67566;42.022;21.356;2023-04-10T05:12:04;14.85;;;11.63;;
78308;SDS011;67566;42.022;21.356;2023-04-10T05:14:30;14.40;;;12.00;;
78308;SDS011;67566;42.022;21.356;2023-04-10T05:16:55;18.50;;;13.50;;
78308;SDS011;67566;42.022;21.356;2023-04-10T05:19:21;18.33;;;11.68;;
78308;SDS011;67566;42.022;21.356;2023-04-10T05:21:46;16.38;;;12.50;;
78308;SDS011;67566;42.022;21.356;2023-04-10T05:24:12;18.08;;;13.45;;
78308;SDS011;67566;42.022;21.356;2023-04-10T05:26:37;18.25;;;14.07;;
78308;SDS011;67566;42.022;21.356;2023-04-10T05:29:03;28.77;;;17.17;;
78308;SDS011;67566;42.022;21.356;2023-04-10T05:31:28;20.25;;;16.00;;
78308;SDS011;67566;42.022;21.356;2023-04-10T05:33:54;73.00;;;32.28;;
78308;SDS011;67566;42.022;21.356;2023-04-10T05:36:19;37.42;;;18.90;;
78308;SDS011;67566;42.022;21.356;2023-04-10T05:38:45;25.35;;;16.80;;
78308;SDS011;67566;42.022;21.356;2023-04-10T05:41:10;48.45;;;22.63;;
78308;SDS011;67566;42.022;21.356;2023-04-10T05:43:36;46.42;;;24.98;;
78308;SDS011;67566;42.022;21.356;2023-04-10T05:46:01;30.08;;;18.25;;
78308;SDS011;67566;42.022;21.356;2023-04-10T05:48:27;19.45;;;13.82;;
78308;SDS011;67566;42.022;21.356;2023-04-10T05:50:52;22.67;;;15.30;;
78308;SDS011;67566;42.022;21.356;2023-04-10T05:53:19;20.17;;;14.70;;
78308;SDS011;67566;42.022;21.356;2023-04-10T05:55:48;21.30;;;15.88;;
78308;SDS011;67566;42.022;21.356;2023-04-10T05:58:15;29.83;;;18.55;;
78308;SDS011;67566;42.022;21.356;2023-04-10T06:00:41;20.02;;;14.05;;
78308;SDS011;67566;42.022;21.356;2023-04-10T06:03:06;16.90;;;12.43;;
78308;SDS011;67566;42.022;21.356;2023-04-10T06:05:32;17.50;;;13.00;;
78308;SDS011;67566;42.022;21.356;2023-04-10T06:07:57;23.67;;;16.17;;
78308;SDS011;67566;42.022;21.356;2023-04-10T06:10:22;16.92;;;13.15;;
78308;SDS011;67566;42.022;21.356;2023-04-10T06:12:48;13.90;;;11.25;;
78308;SDS011;67566;42.022;21.356;2023-04-10T06:15:14;15.43;;;12.07;;
78308;SDS011;67566;42.022;21.356;2023-04-10T06:17:42;13.77;;;9.98;;
78308;SDS011;67566;42.022;21.356;2023-04-10T06:20:08;15.25;;;13.20;;
78308;SDS011;67566;42.022;21.356;2023-04-10T06:22:34;14.40;;;11.88;;
78308;SDS011;67566;42.022;21.356;2023-04-10T06:25:00;13.05;;;11.20;;
78308;SDS011;67566;42.022;21.356;2023-04-10T06:27:25;12.32;;;11.02;;
78308;SDS011;67566;42.022;21.356;2023-04-10T06:29:52;11.95;;;9.63;;
78308;SDS011;67566;42.022;21.356;2023-04-10T06:32:17;13.63;;;10.15;;
78308;SDS011;67566;42.022;21.356;2023-04-10T06:34:43;12.88;;;10.30;;
78308;SDS011;67566;42.022;21.356;2023-04-10T06:37:08;12.10;;;9.40;;
78308;SDS011;67566;42.022;21.356;2023-04-10T06:39:34;12.57;;;10.88;;
78308;SDS011;67566;42.022;21.356;2023-04-10T06:42:00;11.50;;;9.68;;
78308;SDS011;67566;42.022;21.356;2023-04-10T06:44:26;13.52;;;9.52;;
78308;SDS011;67566;42.022;21.356;2023-04-10T06:46:52;13.02;;;10.55;;
78308;SDS011;67566;42.022;21.356;2023-04-10T06:49:17;14.02;;;11.27;;
78308;SDS011;67566;42.022;21.356;2023-04-10T06:51:43;11.15;;;9.68;;
78308;SDS011;67566;42.022;21.356;2023-04-10T06:54:10;11.75;;;9.20;;
78308;SDS011;67566;42.022;21.356;2023-04-10T06:56:35;8.68;;;7.47;;
78308;SDS011;67566;42.022;21.356;2023-04-10T06:59:01;8.68;;;6.63;;
78308;SDS011;67566;42.022;21.356;2023-04-10T07:01:27;10.27;;;8.77;;
78308;SDS011;67566;42.022;21.356;2023-04-10T07:03:52;12.57;;;9.60;;
78308;SDS011;67566;42.022;21.356;2023-04-10T07:06:18;11.75;;;9.25;;
78308;SDS011;67566;42.022;21.356;2023-04-10T07:08:43;11.70;;;9.00;;
78308;SDS011;67566;42.022;21.356;2023-04-10T07:11:09;9.73;;;8.32;;
78308;SDS011;67566;42.022;21.356;2023-04-10T07:13:35;10.95;;;8.73;;
78308;SDS011;67566;42.022;21.356;2023-04-10T07:16:02;11.13;;;8.15;;
78308;SDS011;67566;42.022;21.356;2023-04-10T07:18:28;8.50;;;7.28;;
78308;SDS011;67566;42.022;21.356;2023-04-10T07:20:54;10.63;;;7.35;;
78308;SDS011;67566;42.022;21.356;2023-04-10T07:23:21;7.28;;;6.25;;
78308;SDS011;67566;42.022;21.356;2023-04-10T07:25:46;7.90;;;6.15;;
78308;SDS011;67566;42.022;21.356;2023-04-10T07:28:12;7.18;;;5.60;;
78308;SDS011;67566;42.022;21.356;2023-04-10T07:30:37;6.82;;;5.78;;
78308;SDS011;67566;42.022;21.356;2023-04-10T07:33:03;8.20;;;7.20;;
78308;SDS011;67566;42.022;21.356;2023-04-10T07:35:28;9.00;;;7.30;;
78308;SDS011;67566;42.022;21.356;2023-04-10T07:37:54;8.15;;;6.65;;
78308;SDS011;67566;42.022;21.356;2023-04-10T07:40:19;17.75;;;11.82;;
78308;SDS011;67566;42.022;21.356;2023-04-10T07:42:45;20.83;;;12.45;;
78308;SDS011;67566;42.022;21.356;2023-04-10T07:45:10;29.38;;;17.92;;
78308;SDS011;67566;42.022;21.356;2023-04-10T07:47:36;12.88;;;9.10;;
78308;SDS011;67566;42.022;21.356;2023-04-10T07:50:02;14.43;;;10.32;;
78308;SDS011;67566;42.022;21.356;2023-04-10T07:52:28;17.55;;;12.63;;
78308;SDS011;67566;42.022;21.356;2023-04-10T07:54:54;19.60;;;13.43;;
78308;SDS011;67566;42.022;21.356;2023-04-10T07:57:19;10.55;;;7.55;;
78308;SDS011;67566;42.022;21.356;2023-04-10T07:59:45;23.27;;;14.05;;
78308;SDS011;67566;42.022;21.356;2023-04-10T08:02:10;10.32;;;9.27;;
78308;SDS011;67566;42.022;21.356;2023-04-10T08:04:36;7.82;;;6.95;;
78308;SDS011;67566;42.022;21.356;2023-04-10T08:07:01;9.13;;;7.05;;
78308;SDS011;67566;42.022;21.356;2023-04-10T08:09:27;6.88;;;5.65;;
78308;SDS011;67566;42.022;21.356;2023-04-10T08:11:52;6.28;;;5.43;;
78308;SDS011;67566;42.022;21.356;2023-04-10T08:14:18;6.93;;;5.72;;
78308;SDS011;67566;42.022;21.356;2023-04-10T08:16:43;6.10;;;5.00;;
78308;SDS011;67566;42.022;21.356;2023-04-10T08:19:09;9.43;;;6.60;;
78308;SDS011;67566;42.022;21.356;2023-04-10T08:21:34;8.52;;;6.90;;
78308;SDS011;67566;42.022;21.356;2023-04-10T08:24:01;10.57;;;7.32;;
78308;SDS011;67566;42.022;21.356;2023-04-10T08:26:27;5.90;;;5.30;;
78308;SDS011;67566;42.022;21.356;2023-04-10T08:28:54;7.10;;;5.13;;
78308;SDS011;67566;42.022;21.356;2023-04-10T08:31:21;10.60;;;8.73;;
78308;SDS011;67566;42.022;21.356;2023-04-10T08:33:47;7.03;;;6.32;;
78308;SDS011;67566;42.022;21.356;2023-04-10T08:36:13;5.53;;;5.00;;
78308;SDS011;67566;42.022;21.356;2023-04-10T08:38:40;4.78;;;3.83;;
78308;SDS011;67566;42.022;21.356;2023-04-10T08:41:12;6.15;;;4.78;;
78308;SDS011;67566;42.022;21.356;2023-04-10T08:43:38;4.90;;;4.40;;
78308;SDS011;67566;42.022;21.356;2023-04-10T08:46:04;4.63;;;3.75;;
78308;SDS011;67566;42.022;21.356;2023-04-10T08:48:34;5.88;;;4.93;;
78308;SDS011;67566;42.022;21.356;2023-04-10T08:51:03;5.82;;;4.95;;
78308;SDS011;67566;42.022;21.356;2023-04-10T08:53:30;4.97;;;4.35;;
78308;SDS011;67566;42.022;21.356;2023-04-10T08:55:56;7.32;;;6.63;;
78308;SDS011;67566;42.022;21.356;2023-04-10T08:58:25;6.10;;;5.50;;
78308;SDS011;67566;42.022;21.356;2023-04-10T09:00:51;4.82;;;4.32;;
78308;SDS011;67566;42.022;21.356;2023-04-10T09:03:16;5.05;;;4.47;;
78308;SDS011;67566;42.022;21.356;2023-04-10T09:05:42;16.50;;;14.93;;
78308;SDS011;67566;42.022;21.356;2023-04-10T09:08:08;11.15;;;10.07;;
78308;SDS011;67566;42.022;21.356;2023-04-10T09:10:35;7.95;;;6.43;;
78308;SDS011;67566;42.022;21.356;2023-04-10T09:13:00;6.50;;;5.47;;
78308;SDS011;67566;42.022;21.356;2023-04-10T09:15:26;6.50;;;5.75;;
78308;SDS011;67566;42.022;21.356;2023-04-10T09:20:21;6.78;;;5.57;;
78308;SDS011;67566;42.022;21.356;2023-04-10T09:22:48;6.82;;;5.38;;
78308;SDS011;67566;42.022;21.356;2023-04-10T09:25:33;8.55;;;6.30;;
78308;SDS011;67566;42.022;21.356;2023-04-10T09:28:06;7.15;;;5.40;;
78308;SDS011;67566;42.022;21.356;2023-04-10T09:30:37;9.93;;;9.02;;
78308;SDS011;67566;42.022;21.356;2023-04-10T09:33:22;7.85;;;5.60;;
78308;SDS011;67566;42.022;21.356;2023-04-10T09:35:49;8.13;;;5.75;;
78308;SDS011;67566;42.022;21.356;2023-04-10T09:38:17;6.63;;;5.35;;
78308;SDS011;67566;42.022;21.356;2023-04-10T09:40:44;7.07;;;6.32;;
78308;SDS011;67566;42.022;21.356;2023-04-10T09:43:21;6.18;;;5.57;;
78308;SDS011;67566;42.022;21.356;2023-04-10T09:45:51;8.23;;;6.78;;
78308;SDS011;67566;42.022;21.356;2023-04-10T09:48:18;8.43;;;6.80;;
78308;SDS011;67566;42.022;21.356;2023-04-10T09:50:45;8.90;;;7.05;;
78308;SDS011;67566;42.022;21.356;2023-04-10T09:53:17;7.80;;;6.70;;
78308;SDS011;67566;42.022;21.356;2023-04-10T09:55:44;8.38;;;7.47;;
78308;SDS011;67566;42.022;21.356;2023-04-10T09:58:12;8.73;;;7.40;;
78308;SDS011;67566;42.022;21.356;2023-04-10T10:03:04;9.95;;;8.18;;
78308;SDS011;67566;42.022;21.356;2023-04-10T10:05:34;10.95;;;8.82;;
78308;SDS011;67566;42.022;21.356;2023-04-10T10:08:08;10.63;;;8.45;;
78308;SDS011;67566;42.022;21.356;2023-04-10T10:10:43;11.38;;;8.88;;
78308;SDS011;67566;42.022;21.356;2023-04-10T10:13:10;11.50;;;10.32;;
78308;SDS011;67566;42.022;21.356;2023-04-10T10:15:43;10.15;;;9.02;;
78308;SDS011;67566;42.022;21.356;2023-04-10T10:18:23;9.48;;;8.32;;
78308;SDS011;67566;42.022;21.356;2023-04-10T10:20:56;8.63;;;7.07;;
78308;SDS011;67566;42.022;21.356;2023-04-10T10:23:22;7.88;;;7.07;;
78308;SDS011;67566;42.022;21.356;2023-04-10T10:25:49;11.18;;;8.82;;
78308;SDS011;67566;42.022;21.356;2023-04-10T10:28:17;8.68;;;7.88;;
78308;SDS011;67566;42.022;21.356;2023-04-10T10:30:44;8.45;;;6.60;;
78308;SDS011;67566;42.022;21.356;2023-04-10T10:33:11;7.40;;;6.60;;
78308;SDS011;67566;42.022;21.356;2023-04-10T10:35:38;7.90;;;6.30;;
78308;SDS011;67566;42.022;21.356;2023-04-10T10:38:04;9.73;;;8.57;;
78308;SDS011;67566;42.022;21.356;2023-04-10T10:40:32;8.77;;;7.90;;
78308;SDS011;67566;42.022;21.356;2023-04-10T10:43:12;13.38;;;10.45;;
78308;SDS011;67566;42.022;21.356;2023-04-10T10:45:50;8.30;;;7.30;;
78308;SDS011;67566;42.022;21.356;2023-04-10T10:48:21;7.70;;;6.80;;
78308;SDS011;67566;42.022;21.356;2023-04-10T10:50:50;7.43;;;6.45;;
78308;SDS011;67566;42.022;21.356;2023-04-10T11:01:17;10.50;;;7.57;;
78308;SDS011;67566;42.022;21.356;2023-04-10T11:03:44;8.98;;;7.93;;
78308;SDS011;67566;42.022;21.356;2023-04-10T11:06:46;9.27;;;7.97;;
78308;SDS011;67566;42.022;21.356;2023-04-10T11:09:46;9.93;;;8.93;;
78308;SDS011;67566;42.022;21.356;2023-04-10T11:12:22;10.40;;;9.32;;
78308;SDS011;67566;42.022;21.356;2023-04-10T11:14:55;9.25;;;8.32;;
78308;SDS011;67566;42.022;21.356;2023-04-10T11:20:18;9.00;;;7.50;;
78308;SDS011;67566;42.022;21.356;2023-04-10T11:23:06;7.63;;;6.82;;
78308;SDS011;67566;42.022;21.356;2023-04-10T11:25:47;9.13;;;7.20;;
78308;SDS011;67566;42.022;21.356;2023-04-10T11:28:32;8.73;;;6.97;;
78308;SDS011;67566;42.022;21.356;2023-04-10T11:31:15;8.05;;;7.03;;
78308;SDS011;67566;42.022;21.356;2023-04-10T11:33:47;7.97;;;7.18;;
78308;SDS011;67566;42.022;21.356;2023-04-10T11:36:14;7.65;;;6.78;;
78308;SDS011;67566;42.022;21.356;2023-04-10T11:41:27;8.90;;;7.88;;
78308;SDS011;67566;42.022;21.356;2023-04-10T11:43:54;8.55;;;7.32;;
78308;SDS011;67566;42.022;21.356;2023-04-10T11:46:20;8.68;;;7.78;;
78308;SDS011;67566;42.022;21.356;2023-04-10T11:48:46;9.02;;;7.50;;
78308;SDS011;67566;42.022;21.356;2023-04-10T11:51:12;9.30;;;7.68;;
78308;SDS011;67566;42.022;21.356;2023-04-10T11:53:39;8.70;;;7.35;;
78308;SDS011;67566;42.022;21.356;2023-04-10T11:56:13;9.45;;;8.35;;
78308;SDS011;67566;42.022;21.356;2023-04-10T11:58:43;13.52;;;10.77;;
78308;SDS011;67566;42.022;21.356;2023-04-10T12:01:09;11.75;;;9.30;;
78308;SDS011;67566;42.022;21.356;2023-04-10T12:03:39;11.38;;;10.07;;
78308;SDS011;67566;42.022;21.356;2023-04-10T12:06:07;11.00;;;9.07;;
78308;SDS011;67566;42.022;21.356;2023-04-10T12:08:35;8.68;;;6.30;;
78308;SDS011;67566;42.022;21.356;2023-04-10T12:11:02;14.57;;;10.13;;
78308;SDS011;67566;42.022;21.356;2023-04-10T12:13:30;15.48;;;11.30;;
78308;SDS011;67566;42.022;21.356;2023-04-10T12:15:57;8.88;;;7.53;;
78308;SDS011;67566;42.022;21.356;2023-04-10T12:18:25;7.40;;;5.82;;
78308;SDS011;67566;42.022;21.356;2023-04-10T12:20:52;7.57;;;6.78;;
78308;SDS011;67566;42.022;21.356;2023-04-10T12:23:24;7.05;;;6.22;;
78308;SDS011;67566;42.022;21.356;2023-04-10T12:25:51;7.82;;;7.03;;
78308;SDS011;67566;42.022;21.356;2023-04-10T12:28:19;9.25;;;7.65;;
78308;SDS011;67566;42.022;21.356;2023-04-10T12:30:46;10.13;;;7.95;;
78308;SDS011;67566;42.022;21.356;2023-04-10T12:33:23;10.30;;;7.65;;
78308;SDS011;67566;42.022;21.356;2023-04-10T12:35:50;10.93;;;8.23;;
78308;SDS011;67566;42.022;21.356;2023-04-10T12:41:00;12.40;;;7.60;;
78308;SDS011;67566;42.022;21.356;2023-04-10T12:43:29;10.15;;;7.70;;
78308;SDS011;67566;42.022;21.356;2023-04-10T12:45:56;10.38;;;7.47;;
78308;SDS011;67566;42.022;21.356;2023-04-10T12:48:22;8.93;;;7.05;;
78308;SDS011;67566;42.022;21.356;2023-04-10T12:50:48;19.10;;;13.15;;
78308;SDS011;67566;42.022;21.356;2023-04-10T12:53:13;13.48;;;9.77;;
78308;SDS011;67566;42.022;21.356;2023-04-10T12:55:39;13.35;;;9.48;;
78308;SDS011;67566;42.022;21.356;2023-04-10T12:58:15;9.65;;;7.65;;
78308;SDS011;67566;42.022;21.356;2023-04-10T13:00:44;8.07;;;7.28;;
78308;SDS011;67566;42.022;21.356;2023-04-10T13:03:11;12.93;;;6.72;;
78308;SDS011;67566;42.022;21.356;2023-04-10T13:05:36;7.82;;;7.03;;
78308;SDS011;67566;42.022;21.356;2023-04-10T13:08:02;9.95;;;8.13;;
78308;SDS011;67566;42.022;21.356;2023-04-10T13:10:27;8.82;;;7.90;;
78308;SDS011;67566;42.022;21.356;2023-04-10T13:12:53;10.15;;;8.43;;
78308;SDS011;67566;42.022;21.356;2023-04-10T13:15:18;8.40;;;6.93;;
78308;SDS011;67566;42.022;21.356;2023-04-10T13:17:44;10.02;;;7.93;;
78308;SDS011;67566;42.022;21.356;2023-04-10T13:20:09;9.02;;;7.90;;
78308;SDS011;67566;42.022;21.356;2023-04-10T13:22:35;8.63;;;7.47;;
78308;SDS011;67566;42.022;21.356;2023-04-10T13:25:01;9.02;;;7.80;;
78308;SDS011;67566;42.022;21.356;2023-04-10T13:27:27;12.13;;;8.23;;
78308;SDS011;67566;42.022;21.356;2023-04-10T13:29:53;12.55;;;8.13;;
78308;SDS011;67566;42.022;21.356;2023-04-10T13:32:19;9.63;;;8.35;;
78308;SDS011;67566;42.022;21.356;2023-04-10T13:34:45;13.43;;;8.30;;
78308;SDS011;67566;42.022;21.356;2023-04-10T13:37:11;8.13;;;6.88;;
78308;SDS011;67566;42.022;21.356;2023-04-10T13:39:37;7.40;;;5.50;;
78308;SDS011;67566;42.022;21.356;2023-04-10T13:42:03;6.78;;;5.82;;
78308;SDS011;67566;42.022;21.356;2023-04-10T13:44:28;8.35;;;7.55;;
78308;SDS011;67566;42.022;21.356;2023-04-10T13:46:54;9.65;;;7.80;;
78308;SDS011;67566;42.022;21.356;2023-04-10T13:49:19;6.43;;;5.00;;
78308;SDS011;67566;42.022;21.356;2023-04-10T13:51:46;9.32;;;5.63;;
78308;SDS011;67566;42.022;21.356;2023-04-10T13:54:11;5.60;;;4.75;;
78308;SDS011;67566;42.022;21.356;2023-04-10T13:56:37;5.65;;;4.82;;
78308;SDS011;67566;42.022;21.356;2023-04-10T13:59:03;8.52;;;7.13;;
78308;SDS011;67566;42.022;21.356;2023-04-10T14:01:29;9.95;;;6.15;;
78308;SDS011;67566;42.022;21.356;2023-04-10T14:03:55;6.60;;;5.80;;
78308;SDS011;67566;42.022;21.356;2023-04-10T14:06:21;119.13;;;46.20;;
78308;SDS011;67566;42.022;21.356;2023-04-10T14:08:46;55.13;;;27.30;;
78308;SDS011;67566;42.022;21.356;2023-04-10T14:11:12;10.70;;;8.00;;
78308;SDS011;67566;42.022;21.356;2023-04-10T14:13:40;20.88;;;14.50;;
78308;SDS011;67566;42.022;21.356;2023-04-10T14:16:06;10.30;;;8.00;;
78308;SDS011;67566;42.022;21.356;2023-04-10T14:18:32;17.10;;;12.00;;
78308;SDS011;67566;42.022;21.356;2023-04-10T14:20:57;31.58;;;20.58;;
78308;SDS011;67566;42.022;21.356;2023-04-10T14:23:23;27.17;;;16.77;;
78308;SDS011;67566;42.022;21.356;2023-04-10T14:25:49;13.60;;;8.90;;
78308;SDS011;67566;42.022;21.356;2023-04-10T14:28:15;55.65;;;27.05;;
78308;SDS011;67566;42.022;21.356;2023-04-10T14:30:44;76.40;;;35.28;;
78308;SDS011;67566;42.022;21.356;2023-04-10T14:33:10;76.07;;;42.60;;
78308;SDS011;67566;42.022;21.356;2023-04-10T14:35:36;12.02;;;8.35;;
78308;SDS011;67566;42.022;21.356;2023-04-10T14:38:02;10.25;;;7.93;;
78308;SDS011;67566;42.022;21.356;2023-04-10T14:40:27;10.60;;;8.50;;
78308;SDS011;67566;42.022;21.356;2023-04-10T14:42:53;11.63;;;9.02;;
78308;SDS011;67566;42.022;21.356;2023-04-10T14:45:18;12.50;;;9.65;;
78308;SDS011;67566;42.022;21.356;2023-04-10T14:47:44;10.88;;;8.43;;
78308;SDS011;67566;42.022;21.356;2023-04-10T14:50:09;10.95;;;8.88;;
78308;SDS011;67566;42.022;21.356;2023-04-10T14:52:35;10.13;;;8.98;;
78308;SDS011;67566;42.022;21.356;2023-04-10T14:55:01;10.63;;;9.10;;
78308;SDS011;67566;42.022;21.356;2023-04-10T14:57:26;13.45;;;11.20;;
78308;SDS011;67566;42.022;21.356;2023-04-10T14:59:53;18.52;;;15.55;;